Little York, Indiana
Current Conditions -  °F | °C
As of 1:53 AM on Friday 28 Nov 2014 (Local Time) from KLOU Reporting Station
Clear Clear  
Wind Chill: 26°   Ceiling: Unl
Heat Index: 26°   Visibility: 10mi
Dew Point: 19°   Wind: 3mph
Humidity: 75%   Direction: 250°WSW
Pressure: 30.42"   Gusts: NA
Location:  38.7°N, 85.9°W
Report Text: KLOU 280653Z AUTO 25003KT 10SM CLR M03/M07 A3042 RMK AO2 SLP306 T10331072
Loading
Personal Weather Stations






























Interactive Weather Map New forecast layout! Learn more

10-Day Weather Forecast

Advertisements
Track Severe Weather on mobile